»·PEaware :: KAL213 RKSI-KLAX

KAL213 :: RKSI-KLAX

FLIGHT INFORMATION

Flight Status: Arrived
Operator:
Korean Air
More flights by this operator :: More flights under this callsign
Pilot: Michael F. (26726)
Aircraft: Unknown
(B48F)
More flights by this aircraft type
Origin: RKSI Incheon Intl
Republic of Korea
Destination: KLAX Los Angeles Intl
United States
More flights between these airports :: More routes between these airports
Route: +EGOBA1L EGOBA Y697 KAE Y437 TENAS L512 TATAM/N0506F310 L512 GTC Y512 OATIS 42N160E 44N170E 44N180E/N0500F330 44N170W 44N160W 44N150W 43N140W/N0497F350 41N130W TRYSH ENI OAK BURGL IRNMN2
File this flight plan on PilotEdge
Remarks: RMK / SIMBRIEF
Altitude:
(Current/Filed)
29,000ft
Speed:
(Current/Filed)
505kts
Departed: 08-Apr-20 07:27 PM
Arrived: 08-Apr-20 08:45 PM
Distance/Time
Traveled:
5195nm/1:18
Distance/Time
To Go:
Arrived

Flight Plot

Page will automatically refresh every two minutes.


Map Options




Map Legend


Flown Route
Filed Route
Departure Airport
Arrival Airport
Navaid (VOR, NDB)
Fix

Horizontal Profiles

Position Reports

Time Latitude Longitude Heading Altitude Ground
Speed
08-Apr-20 19:25 39.878004 -126.022279 103 37015ft 468kts
08-Apr-20 19:26 39.832605 -125.863330 103 37012ft 468kts
08-Apr-20 19:27 39.786988 -125.704628 103 37013ft 469kts
08-Apr-20 19:28 39.740986 -125.545620 103 37011ft 469kts
08-Apr-20 19:29 39.694821 -125.386981 103 37016ft 470kts
08-Apr-20 19:30 39.648353 -125.228194 103 37015ft 471kts
08-Apr-20 19:31 39.601620 -125.069511 103 37013ft 471kts
08-Apr-20 19:32 39.554705 -124.911136 104 37010ft 471kts
08-Apr-20 19:33 39.507374 -124.752395 104 37006ft 471kts
08-Apr-20 19:34 39.460035 -124.594438 104 37002ft 471kts
08-Apr-20 19:35 39.412503 -124.436835 104 36997ft 470kts
08-Apr-20 19:36 39.364798 -124.279561 104 36991ft 470kts
08-Apr-20 19:37 39.316762 -124.122278 106 36984ft 470kts
08-Apr-20 19:38 39.268469 -123.965654 107 36979ft 470kts
08-Apr-20 19:39 39.219997 -123.808643 107 36973ft 470kts
08-Apr-20 19:40 39.171521 -123.652249 107 36963ft 471kts
08-Apr-20 19:41 39.122779 -123.495206 108 36961ft 472kts
08-Apr-20 19:42 39.073350 -123.338482 108 36963ft 472kts
08-Apr-20 19:43 38.982871 -123.216017 141 36964ft 491kts
08-Apr-20 19:44 38.865775 -123.122964 144 36976ft 495kts
08-Apr-20 19:45 38.748922 -123.029894 143 36995ft 493kts
08-Apr-20 19:46 38.638129 -122.940971 143 37020ft 494kts
08-Apr-20 19:47 38.521186 -122.847736 143 37032ft 496kts
08-Apr-20 19:48 38.404227 -122.755005 144 37030ft 495kts
08-Apr-20 19:49 38.286978 -122.662385 144 37045ft 495kts
08-Apr-20 19:50 38.169730 -122.570111 144 37043ft 495kts
08-Apr-20 19:51 38.052425 -122.478141 144 37036ft 495kts
08-Apr-20 19:52 37.935318 -122.386382 144 37041ft 497kts
08-Apr-20 19:53 37.817518 -122.294894 144 37044ft 496kts
08-Apr-20 19:54 37.701870 -122.199916 137 37060ft 494kts
08-Apr-20 19:55 37.597245 -122.088242 135 37037ft 491kts
08-Apr-20 19:56 37.511867 -121.997718 136 37030ft 492kts
08-Apr-20 19:57 37.407094 -121.886741 136 37030ft 492kts
08-Apr-20 19:58 37.302187 -121.776185 136 37039ft 493kts
08-Apr-20 19:59 37.196624 -121.665618 137 37048ft 494kts
08-Apr-20 20:00 37.090990 -121.555423 137 37064ft 495kts
08-Apr-20 20:01 36.984910 -121.445179 137 37075ft 496kts
08-Apr-20 20:02 36.878407 -121.334912 138 37079ft 497kts
08-Apr-20 20:03 36.771476 -121.224617 138 37071ft 498kts
08-Apr-20 20:04 36.664765 -121.114954 138 37075ft 498kts
08-Apr-20 20:05 36.568302 -121.016172 138 37071ft 499kts
08-Apr-20 20:06 36.461022 -120.906668 138 37071ft 499kts
08-Apr-20 20:07 36.353862 -120.797748 139 37067ft 499kts
08-Apr-20 20:08 36.246167 -120.688676 139 37071ft 499kts
08-Apr-20 20:09 36.138497 -120.580014 139 37077ft 499kts
08-Apr-20 20:10 36.030364 -120.471278 139 37073ft 500kts
08-Apr-20 20:11 35.922359 -120.363064 140 37074ft 502kts
08-Apr-20 20:12 35.813688 -120.254291 140 37075ft 502kts
08-Apr-20 20:13 35.705153 -120.146552 140 37076ft 502kts
08-Apr-20 20:14 35.600498 -120.057003 148 37090ft 503kts
08-Apr-20 20:15 35.480476 -119.967667 147 37090ft 503kts
08-Apr-20 20:16 35.361213 -119.878349 147 35502ft 500kts
08-Apr-20 20:17 35.244953 -119.784872 140 32375ft 502kts
08-Apr-20 20:18 35.135473 -119.680850 138 29831ft 497kts
08-Apr-20 20:19 35.037834 -119.589893 139 27316ft 507kts
08-Apr-20 20:20 34.929373 -119.489404 139 26217ft 462kts
08-Apr-20 20:21 34.829380 -119.399333 140 24565ft 439kts
08-Apr-20 20:22 34.733196 -119.313619 140 23187ft 412kts
08-Apr-20 20:23 34.648915 -119.240141 141 21780ft 397kts
08-Apr-20 20:24 34.578100 -119.179089 141 20408ft 391kts
08-Apr-20 20:25 34.490547 -119.101866 141 18721ft 383kts
08-Apr-20 20:26 34.414193 -119.034792 142 17253ft 375kts
08-Apr-20 20:27 34.330428 -118.962133 141 15705ft 365kts
08-Apr-20 20:28 34.250638 -118.889428 141 14227ft 353kts
08-Apr-20 20:29 34.175549 -118.820445 142 13493ft 319kts
08-Apr-20 20:30 34.118569 -118.760521 137 12682ft 300kts
08-Apr-20 20:31 34.060333 -118.696957 138 11422ft 282kts
08-Apr-20 20:32 34.024277 -118.618594 99 9803ft 273kts
08-Apr-20 20:33 34.017373 -118.529598 97 8290ft 268kts
08-Apr-20 20:34 34.011339 -118.456493 88 7321ft 264kts
08-Apr-20 20:35 34.024823 -118.370684 78 6080ft 254kts
08-Apr-20 20:36 34.033993 -118.289763 86 4891ft 233kts
08-Apr-20 20:37 34.039676 -118.223419 85 4042ft 223kts
08-Apr-20 20:38 34.024607 -118.160588 165 3525ft 198kts
08-Apr-20 20:39 33.986636 -118.197360 233 3115ft 173kts
08-Apr-20 20:41 33.968789 -118.251155 257 2992ft 176kts
08-Apr-20 20:42 33.961906 -118.307434 257 1829ft 168kts
08-Apr-20 20:43 33.956276 -118.361754 260 941ft 155kts
08-Apr-20 20:44 33.950963 -118.413068 259 140ft 125kts
08-Apr-20 20:45 33.948706 -118.426644 231 139ft 0kts
08-Apr-20 20:46 33.948705 -118.426645 231 139ft 0kts
08-Apr-20 20:47 33.948705 -118.426646 231 139ft 0kts
08-Apr-20 20:48 33.947924 -118.427527 218 139ft 11kts
08-Apr-20 20:49 33.946496 -118.426104 90 139ft 17kts
08-Apr-20 20:50 33.946795 -118.422436 83 139ft 10kts
08-Apr-20 20:51 33.945773 -118.418051 174 139ft 21kts
08-Apr-20 20:52 33.939315 -118.417181 172 139ft 17kts
08-Apr-20 20:53 33.937741 -118.416816 170 139ft 9kts
08-Apr-20 20:54 33.937355 -118.413582 81 139ft 21kts
08-Apr-20 20:55 33.938308 -118.404297 83 139ft 30kts
08-Apr-20 20:56 33.939131 -118.396167 81 139ft 26kts
08-Apr-20 20:57 33.939053 -118.393979 151 139ft 16kts
08-Apr-20 20:58 33.935257 -118.393581 128 139ft 2kts
08-Apr-20 20:58 33.933988 -118.392419 179 139ft 11kts

Navigation Log

Ident Type
Flight plan parsing failed, navigation log unavailable